Weather at La Crosse Municipal Airport

Public forecast

Using degrees Fahrenheit for public forecast. Weather courtesy of forecast.io.

Current aviation weather report (METAR) for La Crosse Municipal Airport

Retrieved 2021/06/25 02:29 UTC (16 minutes ago):

KLSE 250229Z AUTO 05007KT 10SM VCTS -RA FEW018 BKN043 OVC100 22/20 A2981 RMK AO2 LTG DSNT E TSE23 P0004 T02170200

Aviation forecast (TAF) for La Crosse Municipal Airport

Retrieved 2021-06-25 00:24 UTC (2 hours ago):

TAF KLSE 242323Z 2500/2524 20009KT P6SM SCT050 FM250100 20006KT P6SM VCTS BKN040CB FM250600 VRB03KT 5SM BR BKN018 FM251000 VRB03KT 2SM BR BKN007 FM251400 03005KT P6SM BKN018 FM251800 03005KT P6SM SCT040